Time;durP1;ratioP1;P1;durP2;ratioP2;P2;SDS_P1;SDS_P2;PMS_P1;PMS_P2;Temp;Humidity;BMP_temperature;BMP_pressure;BME280_temperature;BME280_humidity;BME280_pressure;Samples;Min_cycle;Max_cycle;Signal;HPM_P1;HPM_P2
2023/02/10 00:04:42;;;;;;;43.70;18.70;;;;;;;-0.18;62.95;102300.78;10277116;28;20051;-58
2023/02/10 00:09:44;;;;;;;49.97;20.25;;;;;;;-0.13;63.33;102290.91;10278606;28;20043;-59
2023/02/10 00:14:45;;;;;;;51.13;21.17;;;;;;;-0.12;62.77;102295.28;10276499;28;20505;-59
2023/02/10 00:19:48;;;;;;;47.15;19.88;;;;;;;-0.11;62.68;102304.06;10280586;28;20051;-60
2023/02/10 00:24:49;;;;;;;44.13;19.75;;;;;;;-0.18;62.86;102310.50;10278558;28;20058;-58
2023/02/10 00:29:51;;;;;;;41.53;19.60;;;;;;;-0.16;63.32;102321.88;10276770;28;20043;-59
2023/02/10 00:34:52;;;;;;;34.95;17.90;;;;;;;-0.29;63.32;102332.91;10275429;28;20047;-59
2023/02/10 00:39:55;;;;;;;42.72;19.20;;;;;;;-0.28;63.23;102336.41;10279604;28;20098;-59
2023/02/10 00:44:56;;;;;;;41.45;17.90;;;;;;;-0.30;63.09;102336.47;10278161;28;20067;-60
2023/02/10 00:49:57;;;;;;;39.70;18.13;;;;;;;-0.30;62.85;102348.81;10277495;28;20087;-61
2023/02/10 00:54:59;;;;;;;45.05;18.92;;;;;;;-0.32;63.70;102351.50;10278473;28;20075;-61
2023/02/10 01:00:00;;;;;;;44.53;17.95;;;;;;;-0.31;63.40;102349.75;10281490;28;20115;-59
2023/02/10 01:05:03;;;;;;;47.33;20.55;;;;;;;-0.29;63.22;102348.78;10275942;28;20105;-59
2023/02/10 01:10:04;;;;;;;43.65;18.25;;;;;;;-0.34;63.68;102350.69;10275253;28;20058;-58
2023/02/10 01:15:06;;;;;;;42.88;16.85;;;;;;;-0.35;63.35;102354.28;10272244;28;20067;-59
2023/02/10 01:20:08;;;;;;;41.35;18.70;;;;;;;-0.38;63.70;102359.66;10279980;28;20073;-59
2023/02/10 01:25:09;;;;;;;41.10;16.30;;;;;;;-0.49;63.71;102348.66;10282273;28;20077;-60
2023/02/10 01:30:11;;;;;;;43.08;16.92;;;;;;;-0.47;64.05;102358.22;10275468;28;20061;-58
2023/02/10 01:35:12;;;;;;;44.33;17.42;;;;;;;-0.45;63.69;102358.19;10259582;28;20082;-59
2023/02/10 01:40:14;;;;;;;40.75;18.08;;;;;;;-0.44;63.74;102367.81;10283025;28;20059;-60
2023/02/10 01:45:33;;;;;;;40.67;16.98;;;;;;;-0.43;63.88;102378.34;10257968;28;20567;-62
2023/02/10 01:50:42;;;;;;;38.92;16.60;;;;;;;-0.42;63.63;102381.81;10273696;28;20054;-60
2023/02/10 01:55:47;;;;;;;37.88;16.83;;;;;;;-0.39;63.88;102387.00;10282533;28;20047;-59
2023/02/10 02:00:48;;;;;;;42.55;15.93;;;;;;;-0.33;63.59;102378.88;10277086;28;20143;-61
2023/02/10 02:05:50;;;;;;;40.25;16.58;;;;;;;-0.25;63.89;102379.44;10275373;28;20051;-60
2023/02/10 02:11:00;;;;;;;37.13;17.58;;;;;;;-0.14;63.53;102376.41;10281656;28;20059;-61
2023/02/10 02:16:17;;;;;;;38.67;16.63;;;;;;;-0.04;63.83;102393.66;10275839;28;20077;-61
2023/02/10 02:21:21;;;;;;;47.55;16.25;;;;;;;-0.01;63.61;102385.59;10257561;28;20047;-61
2023/02/10 02:26:56;;;;;;;44.03;16.98;;;;;;;0.10;63.76;102390.50;10282351;28;20083;-61
2023/02/10 02:32:20;;;;;;;40.63;20.40;;;;;;;0.13;63.91;102395.66;10278325;28;20059;-61
2023/02/10 02:37:30;;;;;;;45.47;19.48;;;;;;;0.12;63.91;102396.59;10273996;28;20371;-61
2023/02/10 02:42:32;;;;;;;41.83;19.33;;;;;;;0.25;64.03;102396.13;10274302;28;20054;-61
2023/02/10 02:47:54;;;;;;;34.83;16.63;;;;;;;0.20;64.70;102401.59;10274184;28;20062;-61
2023/02/10 02:53:07;;;;;;;39.83;17.02;;;;;;;0.35;64.35;102400.13;10279075;28;20051;-60
2023/02/10 02:58:24;;;;;;;35.03;16.23;;;;;;;0.53;63.93;102399.44;10277841;28;20055;-60
2023/02/10 03:03:25;;;;;;;39.38;18.00;;;;;;;0.65;63.53;102395.41;10271421;28;20091;-61
2023/02/10 03:08:30;;;;;;;38.60;16.17;;;;;;;0.77;63.65;102381.72;10278206;28;20062;-62
2023/02/10 03:13:32;;;;;;;38.55;16.35;;;;;;;0.90;64.08;102381.22;10276622;28;20043;-60
2023/02/10 03:18:33;;;;;;;39.90;16.63;;;;;;;0.96;63.84;102380.94;10284630;28;20046;-60
2023/02/10 03:23:35;;;;;;;39.45;16.67;;;;;;;1.03;63.97;102378.91;10283353;28;20514;-61
2023/02/10 03:28:36;;;;;;;39.30;16.92;;;;;;;0.98;64.44;102379.94;10275165;28;20059;-61
2023/02/10 03:33:38;;;;;;;38.33;16.70;;;;;;;1.01;64.51;102383.41;10251337;28;20050;-61
2023/02/10 03:38:39;;;;;;;43.83;19.70;;;;;;;1.21;63.82;102382.59;10275098;28;20051;-61
2023/02/10 03:43:41;;;;;;;45.13;17.52;;;;;;;1.36;63.59;102382.78;10272991;28;20097;-61
2023/02/10 03:48:42;;;;;;;40.03;18.42;;;;;;;1.45;64.39;102394.78;10277112;28;20047;-60
2023/02/10 03:53:44;;;;;;;35.53;16.88;;;;;;;1.56;64.48;102395.19;10272681;28;20047;-59
2023/02/10 03:58:45;;;;;;;42.65;20.85;;;;;;;1.62;64.50;102401.13;10261861;28;20047;-61
2023/02/10 04:03:46;;;;;;;46.33;19.90;;;;;;;1.68;64.11;102400.84;10277637;28;20062;-60
2023/02/10 04:08:49;;;;;;;47.05;20.98;;;;;;;1.72;63.62;102405.97;10277675;28;20128;-60
2023/02/10 04:13:50;;;;;;;48.58;21.30;;;;;;;1.77;64.08;102403.09;10275734;28;20134;-60
2023/02/10 04:18:51;;;;;;;46.50;20.65;;;;;;;1.87;63.95;102414.16;10259923;28;20054;-61
2023/02/10 04:23:53;;;;;;;45.83;20.20;;;;;;;1.89;64.05;102425.56;10276329;28;20050;-60
2023/02/10 04:28:54;;;;;;;45.03;20.13;;;;;;;1.94;64.17;102424.44;10276091;28;20055;-60
2023/02/10 04:33:56;;;;;;;43.42;20.30;;;;;;;2.07;63.83;102423.88;10271247;28;20139;-61
2023/02/10 04:38:57;;;;;;;45.53;21.92;;;;;;;2.12;63.70;102429.84;10278090;28;20055;-59
2023/02/10 04:43:59;;;;;;;45.70;20.58;;;;;;;2.21;63.13;102436.50;10291025;28;20122;-61
2023/02/10 04:49:00;;;;;;;43.78;21.08;;;;;;;2.18;63.45;102435.72;10279829;28;20079;-60
2023/02/10 04:54:02;;;;;;;51.35;19.88;;;;;;;2.26;63.59;102434.50;10285703;28;20070;-60
2023/02/10 04:59:03;;;;;;;42.13;19.25;;;;;;;2.31;63.45;102433.38;10268313;28;20871;-60
2023/02/10 05:04:05;;;;;;;40.63;18.55;;;;;;;2.34;63.87;102443.81;10283102;28;20692;-59
2023/02/10 05:09:06;;;;;;;44.60;18.70;;;;;;;2.27;63.22;102442.41;10278370;28;20044;-60
2023/02/10 05:14:07;;;;;;;56.17;22.20;;;;;;;2.33;63.33;102444.78;10296360;28;20051;-60
2023/02/10 05:19:09;;;;;;;49.15;21.35;;;;;;;2.44;63.59;102441.59;10296332;28;20047;-61
2023/02/10 05:24:10;;;;;;;42.95;20.30;;;;;;;2.51;63.62;102445.72;10297133;28;20059;-60
2023/02/10 05:29:12;;;;;;;43.63;19.45;;;;;;;2.48;63.72;102447.66;10294450;28;20051;-60
2023/02/10 05:34:13;;;;;;;47.42;21.95;;;;;;;2.52;63.10;102451.88;10294886;28;20043;-60
2023/02/10 05:39:23;;;;;;;50.00;20.55;;;;;;;2.56;62.77;102450.78;10277256;28;20054;-62
2023/02/10 05:44:27;;;;;;;47.10;20.75;;;;;;;2.50;63.44;102454.59;10288189;28;20063;-60
2023/02/10 05:49:29;;;;;;;46.80;20.02;;;;;;;2.57;62.92;102450.72;10293135;28;20314;-61
2023/02/10 05:54:30;;;;;;;46.08;21.50;;;;;;;2.64;63.86;102450.44;10284421;28;20048;-60
2023/02/10 05:59:32;;;;;;;42.72;20.58;;;;;;;2.71;63.67;102446.56;10289831;28;20129;-60
2023/02/10 06:04:33;;;;;;;45.42;22.20;;;;;;;2.70;63.15;102450.16;10286506;28;20100;-60
2023/02/10 06:09:34;;;;;;;40.90;19.95;;;;;;;2.72;63.40;102441.16;10287099;28;20055;-60
2023/02/10 06:14:37;;;;;;;43.63;19.50;;;;;;;2.74;62.88;102457.03;10289870;28;21546;-60
2023/02/10 06:19:39;;;;;;;38.03;18.67;;;;;;;2.52;63.42;102463.34;10284996;28;20110;-61
2023/02/10 06:24:41;;;;;;;39.72;19.55;;;;;;;2.50;63.04;102459.06;10290682;28;20082;-60
2023/02/10 06:29:43;;;;;;;42.88;20.45;;;;;;;2.45;63.03;102471.66;10275582;28;20053;-60
2023/02/10 06:34:45;;;;;;;46.35;22.35;;;;;;;2.41;63.02;102464.78;10284444;28;20050;-61
2023/02/10 06:39:46;;;;;;;44.25;22.77;;;;;;;2.28;63.46;102472.44;10278434;28;20057;-60
2023/02/10 06:44:48;;;;;;;44.60;21.35;;;;;;;2.21;63.04;102481.59;10258580;28;20664;-67
2023/02/10 06:49:49;;;;;;;40.35;19.75;;;;;;;2.12;63.10;102480.25;10254593;28;20074;-68
2023/02/10 06:54:51;;;;;;;40.70;18.80;;;;;;;2.00;63.43;102492.25;10259876;28;20047;-67
2023/02/10 06:59:53;;;;;;;39.58;19.23;;;;;;;1.97;63.35;102498.56;10237028;28;20106;-67
2023/02/10 07:04:54;;;;;;;43.95;18.77;;;;;;;1.88;63.30;102506.06;10254679;28;20446;-67
2023/02/10 07:09:56;;;;;;;47.38;21.58;;;;;;;1.84;63.33;102507.09;10260941;28;20051;-67
2023/02/10 07:14:57;;;;;;;62.88;21.95;;;;;;;1.85;63.28;102506.16;10240759;28;20097;-68
2023/02/10 07:19:59;;;;;;;46.40;21.25;;;;;;;1.85;63.83;102512.31;10258550;28;20074;-66
2023/02/10 07:25:00;;;;;;;42.85;21.13;;;;;;;1.75;64.34;102514.50;10254270;28;20081;-66
2023/02/10 07:30:02;;;;;;;45.33;21.75;;;;;;;1.82;63.52;102520.44;10257609;28;20106;-67
2023/02/10 07:35:04;;;;;;;44.65;20.70;;;;;;;1.85;62.95;102516.78;10257993;28;20530;-67
2023/02/10 07:40:06;;;;;;;47.85;20.33;;;;;;;1.86;63.47;102522.03;10259980;28;20109;-70
2023/02/10 07:45:08;;;;;;;44.35;21.15;;;;;;;1.92;63.82;102539.47;10258382;28;20134;-68
2023/02/10 07:50:09;;;;;;;43.25;21.48;;;;;;;1.91;63.99;102535.06;10254866;28;20118;-68
2023/02/10 07:55:11;;;;;;;48.20;22.40;;;;;;;2.03;63.57;102550.47;10259483;28;20043;-69
2023/02/10 08:00:14;;;;;;;42.38;20.67;;;;;;;2.13;63.42;102554.47;10257482;28;20074;-69
2023/02/10 08:05:16;;;;;;;44.83;21.67;;;;;;;2.27;63.26;102551.19;10255432;28;20071;-67
2023/02/10 08:10:20;;;;;;;42.25;20.38;;;;;;;2.41;63.87;102537.31;10256304;28;20149;-66
2023/02/10 08:15:22;;;;;;;40.55;20.65;;;;;;;2.72;63.39;102539.41;10253764;28;20059;-68
2023/02/10 08:20:24;;;;;;;41.20;20.15;;;;;;;2.77;63.15;102547.19;10263623;28;20047;-67
2023/02/10 08:25:26;;;;;;;43.40;21.10;;;;;;;2.86;62.62;102544.09;10261934;28;20074;-69
2023/02/10 08:30:27;;;;;;;46.30;20.42;;;;;;;2.96;62.74;102542.75;10262726;28;20118;-71
2023/02/10 08:35:29;;;;;;;46.88;21.88;;;;;;;3.06;62.93;102544.94;10263586;28;20050;-69
2023/02/10 08:40:31;;;;;;;46.60;22.10;;;;;;;3.29;62.78;102555.34;10264947;28;20187;-68
2023/02/10 08:45:33;;;;;;;41.85;20.10;;;;;;;3.49;62.46;102561.47;10267258;28;20102;-67
2023/02/10 08:50:34;;;;;;;45.72;21.10;;;;;;;3.54;62.34;102562.13;10261276;28;20186;-69
2023/02/10 08:55:36;;;;;;;43.30;21.52;;;;;;;3.87;61.84;102564.03;10266466;28;20059;-67
2023/02/10 09:00:37;;;;;;;43.13;21.60;;;;;;;4.07;61.71;102566.56;10261971;28;20142;-67
2023/02/10 09:05:38;;;;;;;49.25;24.95;;;;;;;4.24;61.56;102559.47;10260922;28;20109;-68
2023/02/10 09:10:40;;;;;;;46.08;22.23;;;;;;;4.32;61.35;102565.25;10261496;28;20108;-70
2023/02/10 09:15:42;;;;;;;45.30;22.52;;;;;;;4.57;61.11;102551.53;10255170;28;20079;-66
2023/02/10 09:20:43;;;;;;;44.70;22.48;;;;;;;4.62;61.08;102551.25;10244753;28;20165;-70
2023/02/10 09:25:52;;;;;;;41.25;22.60;;;;;;;4.67;60.95;102559.88;10261509;28;20502;-70
2023/02/10 09:30:54;;;;;;;50.35;22.75;;;;;;;4.70;60.80;102554.38;10264507;28;20077;-68
2023/02/10 09:35:56;;;;;;;43.17;22.00;;;;;;;4.48;60.83;102567.97;10240999;28;20458;-70
2023/02/10 09:41:15;;;;;;;46.75;22.33;;;;;;;4.44;60.83;102567.28;10257751;28;20349;-69
2023/02/10 09:46:54;;;;;;;46.30;20.70;;;;;;;4.59;60.47;102565.63;10264437;28;20055;-69
2023/02/10 09:52:34;;;;;;;43.55;22.05;;;;;;;4.53;60.33;102576.59;10241519;28;20495;-68
2023/02/10 09:57:40;;;;;;;42.97;21.48;;;;;;;4.73;60.49;102579.03;10261627;28;20055;-69
2023/02/10 10:02:49;;;;;;;41.58;21.38;;;;;;;5.05;59.76;102573.75;10265427;28;20153;-69
2023/02/10 10:07:53;;;;;;;42.60;21.60;;;;;;;5.16;59.71;102570.50;10248822;28;20142;-70
2023/02/10 10:12:55;;;;;;;43.22;20.02;;;;;;;5.12;59.79;102569.81;10259495;28;20395;-71
2023/02/10 10:17:56;;;;;;;41.75;21.92;;;;;;;5.06;59.93;102574.63;10263978;28;20079;-69
2023/02/10 10:23:26;;;;;;;43.75;21.73;;;;;;;5.09;59.35;102577.13;10240653;28;20082;-69
2023/02/10 10:29:03;;;;;;;39.97;19.40;;;;;;;5.01;59.40;102582.00;10247027;28;20169;-70
2023/02/10 10:34:07;;;;;;;42.92;21.05;;;;;;;4.99;59.64;102584.75;10195065;28;20670;-69
2023/02/10 10:39:15;;;;;;;42.08;21.38;;;;;;;5.47;58.99;102582.09;10259918;28;20143;-68
2023/02/10 10:44:18;;;;;;;38.83;21.50;;;;;;;5.67;58.70;102579.16;10263305;28;20138;-70
2023/02/10 10:49:19;;;;;;;42.10;21.50;;;;;;;6.07;57.70;102579.50;10261473;28;20674;-70
2023/02/10 10:54:22;;;;;;;38.85;21.30;;;;;;;6.32;57.43;102581.56;10255946;28;20453;-69
2023/02/10 10:59:42;;;;;;;42.08;21.75;;;;;;;6.57;57.12;102573.88;10258111;28;20490;-70
2023/02/10 11:04:44;;;;;;;42.40;21.45;;;;;;;6.73;57.16;102558.56;10261537;28;20062;-67
2023/02/10 11:09:51;;;;;;;43.95;20.80;;;;;;;6.86;56.84;102540.81;10259268;28;20082;-71
2023/02/10 11:14:57;;;;;;;40.45;21.83;;;;;;;6.92;57.33;102548.44;10252473;28;20047;-68
2023/02/10 11:20:03;;;;;;;39.70;21.73;;;;;;;7.12;57.39;102549.84;10257405;28;20549;-68
2023/02/10 11:25:23;;;;;;;42.55;21.20;;;;;;;7.24;56.71;102521.44;10258501;28;20078;-68
2023/02/10 11:30:41;;;;;;;42.55;23.55;;;;;;;7.30;56.66;102518.34;10257258;28;20063;-69
2023/02/10 11:35:48;;;;;;;39.47;21.52;;;;;;;7.36;56.30;102519.78;10259722;28;20488;-68
2023/02/10 11:40:51;;;;;;;42.38;19.77;;;;;;;7.46;55.31;102512.00;10255231;28;20174;-69
2023/02/10 11:45:55;;;;;;;42.03;20.85;;;;;;;7.30;55.72;102517.50;10256001;28;20142;-68
2023/02/10 11:51:14;;;;;;;41.72;21.45;;;;;;;7.35;56.01;102510.03;10256433;28;20662;-69
2023/02/10 12:02:34;;;;;;;44.28;20.35;;;;;;;7.15;55.86;102511.34;10255584;28;20047;-65
2023/02/10 12:07:53;;;;;;;39.58;20.23;;;;;;;7.22;55.92;102504.63;10255580;28;20075;-64
2023/02/10 12:13:14;;;;;;;40.78;21.10;;;;;;;7.20;55.54;102511.91;10258337;28;20077;-67
2023/02/10 12:18:29;;;;;;;38.95;20.90;;;;;;;7.23;55.84;102508.19;10257946;28;20114;-65
2023/02/10 12:23:52;;;;;;;40.70;21.45;;;;;;;7.35;55.39;102499.34;10229522;28;20078;-68
2023/02/10 12:29:18;;;;;;;36.30;19.88;;;;;;;7.33;55.59;102494.09;10257387;28;20071;-70
2023/02/10 12:34:26;;;;;;;43.90;20.23;;;;;;;7.24;55.71;102486.66;10249878;28;20058;-69
2023/02/10 12:39:46;;;;;;;43.97;21.25;;;;;;;7.12;55.96;102474.94;10257771;28;20549;-67
2023/02/10 12:45:07;;;;;;;45.20;22.08;;;;;;;7.01;56.01;102466.81;10252707;28;20442;-68
2023/02/10 12:50:28;;;;;;;42.20;22.25;;;;;;;7.07;55.77;102477.09;10255362;28;20055;-66
2023/02/10 12:55:48;;;;;;;36.50;20.60;;;;;;;6.93;56.51;102466.41;10256710;28;20475;-69
2023/02/10 13:00:57;;;;;;;42.50;21.40;;;;;;;6.97;55.72;102456.38;10255612;28;20075;-67
2023/02/10 13:06:14;;;;;;;33.63;18.60;;;;;;;7.20;56.15;102444.19;10252478;28;20047;-69
2023/02/10 13:11:48;;;;;;;41.40;20.58;;;;;;;7.09;56.53;102453.78;10265136;28;20055;-68
2023/02/10 13:16:59;;;;;;;37.92;20.13;;;;;;;7.22;56.19;102458.31;10261712;28;20060;-69
2023/02/10 13:22:18;;;;;;;34.25;18.27;;;;;;;7.58;55.68;102444.25;10235130;28;20059;-68
2023/02/10 13:27:31;;;;;;;39.45;20.30;;;;;;;7.91;55.49;102443.75;10248361;28;20454;-69
2023/02/10 13:33:11;;;;;;;34.47;19.52;;;;;;;8.16;55.29;102441.22;10263483;28;20059;-68
2023/02/10 13:38:19;;;;;;;36.78;19.08;;;;;;;8.38;54.32;102445.88;10260090;28;20136;-69
2023/02/10 13:43:31;;;;;;;38.70;22.02;;;;;;;8.59;54.28;102448.84;10261363;28;20074;-68
2023/02/10 13:48:35;;;;;;;39.60;21.52;;;;;;;8.62;54.14;102440.59;10245405;28;20047;-69
2023/02/10 13:53:39;;;;;;;37.50;19.92;;;;;;;8.70;53.68;102431.03;10244986;28;20067;-68
2023/02/10 13:59:26;;;;;;;37.67;19.92;;;;;;;8.77;54.22;102430.56;10229475;28;20510;-67
2023/02/10 14:04:40;;;;;;;37.13;19.20;;;;;;;8.71;54.21;102431.91;10247947;28;20101;-68
2023/02/10 14:09:41;;;;;;;34.83;19.38;;;;;;;8.76;54.00;102424.34;10247918;28;20070;-67
2023/02/10 14:14:43;;;;;;;34.67;20.85;;;;;;;8.65;53.90;102424.28;10260979;28;20046;-67
2023/02/10 14:19:46;;;;;;;41.42;21.35;;;;;;;8.62;53.60;102427.19;10268045;28;20410;-67
2023/02/10 14:24:48;;;;;;;39.88;21.50;;;;;;;8.56;53.23;102423.13;10264136;28;20546;-68
2023/02/10 14:29:58;;;;;;;35.78;20.10;;;;;;;8.46;53.24;102422.09;10246145;28;20505;-67
2023/02/10 14:35:05;;;;;;;34.13;18.73;;;;;;;8.46;53.39;102416.75;10242277;28;20047;-69
2023/02/10 14:40:22;;;;;;;34.92;20.75;;;;;;;8.30;53.97;102422.31;10261785;28;20085;-69
2023/02/10 14:45:26;;;;;;;35.78;20.02;;;;;;;8.12;54.01;102425.34;10256947;28;20058;-70
2023/02/10 14:50:35;;;;;;;36.63;20.88;;;;;;;8.23;54.22;102421.88;10259907;28;20102;-67
2023/02/10 14:55:40;;;;;;;37.97;21.02;;;;;;;8.16;54.27;102425.13;10235658;28;20178;-70
2023/02/10 15:00:55;;;;;;;39.17;21.60;;;;;;;8.07;54.10;102421.25;10252715;28;20047;-67
2023/02/10 15:06:00;;;;;;;42.33;22.38;;;;;;;8.10;54.01;102421.06;10239116;28;20583;-67
2023/02/10 15:11:03;;;;;;;35.17;21.73;;;;;;;8.05;54.37;102405.28;10263390;28;20187;-69
2023/02/10 15:16:08;;;;;;;35.08;19.17;;;;;;;8.17;53.71;102406.25;10254965;28;20078;-67
2023/02/10 15:21:42;;;;;;;36.00;20.27;;;;;;;8.23;54.31;102403.13;10237870;28;20059;-66
2023/02/10 15:26:44;;;;;;;38.67;20.48;;;;;;;8.26;54.54;102396.72;10213982;28;20062;-66
2023/02/10 15:31:58;;;;;;;34.10;20.30;;;;;;;8.33;54.49;102400.63;10258132;28;20918;-67
2023/02/10 15:37:04;;;;;;;34.85;19.88;;;;;;;8.28;54.77;102402.81;10259742;28;20050;-68
2023/02/10 15:42:21;;;;;;;38.10;19.63;;;;;;;8.09;55.04;102400.59;10251944;28;20121;-69
2023/02/10 15:47:26;;;;;;;37.13;20.90;;;;;;;8.16;54.55;102401.03;10257887;28;20109;-69
2023/02/10 15:52:33;;;;;;;40.58;20.33;;;;;;;8.08;54.44;102397.06;10254967;28;20054;-70
2023/02/10 15:57:35;;;;;;;36.85;20.33;;;;;;;8.04;55.36;102400.06;10252286;28;20048;-69
2023/02/10 16:02:36;;;;;;;39.95;20.38;;;;;;;7.94;55.24;102395.34;10256795;28;20401;-69
2023/02/10 16:07:37;;;;;;;39.28;19.60;;;;;;;7.91;55.23;102395.56;10238753;28;20047;-68
2023/02/10 16:12:39;;;;;;;44.15;21.05;;;;;;;7.84;55.33;102394.28;10258002;28;20086;-69
2023/02/10 16:17:43;;;;;;;41.85;20.55;;;;;;;7.66;55.78;102403.59;10261399;28;20138;-68
2023/02/10 16:22:46;;;;;;;38.15;20.75;;;;;;;7.62;55.05;102394.06;10249520;28;20074;-67
2023/02/10 16:27:47;;;;;;;45.88;21.23;;;;;;;7.51;54.73;102397.50;10260227;28;20071;-69
2023/02/10 16:32:49;;;;;;;37.53;20.15;;;;;;;7.37;54.75;102394.91;10259306;28;20134;-68
2023/02/10 16:37:51;;;;;;;38.22;21.55;;;;;;;7.17;55.48;102401.56;10269676;28;20105;-68
2023/02/10 16:42:56;;;;;;;46.10;21.50;;;;;;;7.10;55.48;102398.47;10253958;28;20051;-66
2023/02/10 16:47:59;;;;;;;38.78;19.42;;;;;;;7.09;54.88;102402.09;10258408;28;20051;-68
2023/02/10 16:53:01;;;;;;;35.72;20.88;;;;;;;6.92;54.79;102408.56;10249018;28;20119;-69
2023/02/10 16:58:04;;;;;;;44.80;20.33;;;;;;;6.74;55.42;102408.81;10252032;28;20054;-70
2023/02/10 17:03:05;;;;;;;42.30;20.25;;;;;;;6.71;55.45;102418.84;10232362;28;20051;-63
2023/02/10 17:08:07;;;;;;;40.35;21.00;;;;;;;6.51;56.05;102428.16;10266527;28;20101;-64
2023/02/10 17:13:08;;;;;;;39.35;22.00;;;;;;;6.42;56.21;102418.91;10264707;28;20078;-64
2023/02/10 17:18:13;;;;;;;40.92;21.67;;;;;;;6.34;56.10;102430.09;10262945;28;20114;-63
2023/02/10 17:23:14;;;;;;;40.33;22.77;;;;;;;6.22;56.09;102427.31;10261198;28;20129;-63
2023/02/10 17:28:16;;;;;;;42.05;23.15;;;;;;;6.12;56.98;102427.91;10260450;28;20055;-62
2023/02/10 17:33:27;;;;;;;46.67;22.98;;;;;;;6.05;56.71;102421.22;10256494;28;20055;-64
2023/02/10 17:38:44;;;;;;;47.55;24.02;;;;;;;5.95;57.79;102420.09;10260439;28;20067;-64
2023/02/10 17:43:46;;;;;;;49.55;25.55;;;;;;;5.91;56.89;102442.53;10261574;28;20121;-63
2023/02/10 17:48:48;;;;;;;43.88;24.33;;;;;;;5.82;57.79;102456.44;10258527;28;20067;-63
2023/02/10 17:53:51;;;;;;;50.45;26.90;;;;;;;5.75;57.75;102455.97;10263403;28;20083;-62
2023/02/10 17:58:53;;;;;;;52.92;26.15;;;;;;;5.63;57.64;102460.22;10258561;28;20438;-62
2023/02/10 18:03:55;;;;;;;53.67;27.20;;;;;;;5.54;58.36;102455.44;10259220;28;20182;-61
2023/02/10 18:08:57;;;;;;;50.05;26.33;;;;;;;5.54;57.93;102453.59;10261095;28;20058;-62
2023/02/10 18:14:00;;;;;;;57.55;26.80;;;;;;;5.52;58.28;102454.66;10262041;28;20066;-60
2023/02/10 18:19:01;;;;;;;59.55;28.92;;;;;;;5.47;58.27;102462.94;10261399;28;20669;-63
2023/02/10 18:24:03;;;;;;;53.33;26.42;;;;;;;5.39;57.91;102470.53;10259441;28;20403;-61
2023/02/10 18:29:04;;;;;;;50.92;26.30;;;;;;;5.28;58.07;102464.97;10239766;28;20137;-61
2023/02/10 18:34:06;;;;;;;54.25;26.13;;;;;;;5.14;58.32;102463.09;10264208;28;20101;-59
2023/02/10 18:39:09;;;;;;;56.17;27.27;;;;;;;4.97;58.39;102470.22;10264279;28;20082;-59
2023/02/10 18:44:10;;;;;;;53.47;29.20;;;;;;;4.87;58.61;102457.53;10272315;28;20596;-60
2023/02/10 18:49:12;;;;;;;59.08;29.08;;;;;;;4.73;58.87;102443.16;10269215;28;20066;-63
2023/02/10 18:54:13;;;;;;;57.15;28.35;;;;;;;4.63;58.89;102449.13;10263821;28;20095;-63
2023/02/10 18:59:15;;;;;;;62.88;30.83;;;;;;;4.56;59.16;102445.91;10262192;28;20059;-62
2023/02/10 19:04:17;;;;;;;57.15;28.73;;;;;;;4.52;59.67;102445.25;10265428;28;20059;-63
2023/02/10 19:09:18;;;;;;;60.13;28.25;;;;;;;4.44;59.14;102435.94;10262440;28;20142;-63
2023/02/10 19:14:19;;;;;;;58.40;28.58;;;;;;;4.39;59.42;102441.53;10263447;28;20059;-63
2023/02/10 19:19:21;;;;;;;57.70;26.92;;;;;;;4.33;59.79;102433.88;10263153;28;20133;-64
2023/02/10 19:24:22;;;;;;;53.85;27.73;;;;;;;4.29;59.97;102438.50;10261174;28;20074;-63
2023/02/10 19:29:24;;;;;;;52.65;27.23;;;;;;;4.25;60.00;102434.31;10271105;28;20402;-63
2023/02/10 19:34:25;;;;;;;50.95;26.35;;;;;;;4.17;60.05;102426.72;10264591;28;20101;-61
2023/02/10 19:39:27;;;;;;;55.13;26.23;;;;;;;4.13;60.16;102419.00;10247892;28;20059;-62
2023/02/10 19:44:30;;;;;;;57.72;27.10;;;;;;;4.12;60.52;102428.75;10259655;28;20118;-62
2023/02/10 19:49:32;;;;;;;48.67;25.55;;;;;;;4.08;60.32;102423.69;10259659;28;20141;-62
2023/02/10 19:54:33;;;;;;;61.33;27.23;;;;;;;4.00;60.55;102415.28;10245479;28;20462;-62
2023/02/10 19:59:35;;;;;;;65.80;28.20;;;;;;;3.91;60.84;102412.16;10244981;28;20506;-62
2023/02/10 20:04:36;;;;;;;64.22;29.35;;;;;;;3.84;60.67;102404.59;10254211;28;20082;-63
2023/02/10 20:09:39;;;;;;;64.90;32.22;;;;;;;3.76;60.75;102405.84;10262515;28;20058;-62
2023/02/10 20:14:40;;;;;;;61.33;29.48;;;;;;;3.67;60.89;102419.59;10270226;28;20090;-63
2023/02/10 20:19:41;;;;;;;58.03;27.50;;;;;;;3.61;61.38;102429.72;10266139;28;20146;-62
2023/02/10 20:24:43;;;;;;;64.10;28.48;;;;;;;3.69;61.48;102435.50;10271280;28;20078;-63
2023/02/10 20:29:44;;;;;;;68.28;30.90;;;;;;;3.77;61.80;102436.84;10265387;28;20477;-64
2023/02/10 20:34:46;;;;;;;59.40;29.45;;;;;;;3.81;61.81;102434.00;10267958;28;20051;-64
2023/02/10 20:39:48;;;;;;;54.47;28.50;;;;;;;3.87;61.75;102433.66;10269091;28;20418;-64
2023/02/10 20:44:49;;;;;;;55.00;28.60;;;;;;;3.81;62.11;102426.00;10277044;28;20043;-62
2023/02/10 20:49:50;;;;;;;55.80;28.25;;;;;;;3.85;62.31;102409.84;10264628;28;20477;-65
2023/02/10 20:54:52;;;;;;;57.42;27.50;;;;;;;3.92;62.31;102405.88;10265307;28;20074;-63
2023/02/10 20:59:53;;;;;;;50.47;26.42;;;;;;;4.00;62.96;102405.47;10258238;28;20054;-64
2023/02/10 21:04:54;;;;;;;57.75;29.17;;;;;;;4.08;63.02;102405.06;10270629;28;20046;-64
2023/02/10 21:09:57;;;;;;;54.13;27.98;;;;;;;4.14;63.08;102400.25;10264369;28;20046;-63
2023/02/10 21:14:58;;;;;;;50.38;26.98;;;;;;;4.19;63.10;102384.06;10270008;28;20525;-63
2023/02/10 21:19:59;;;;;;;51.72;28.60;;;;;;;4.23;62.83;102374.09;10276257;28;20046;-64
2023/02/10 21:25:05;;;;;;;55.97;27.90;;;;;;;4.23;62.74;102374.09;10266247;28;20113;-64
2023/02/10 21:30:11;;;;;;;63.60;29.63;;;;;;;4.27;62.85;102383.66;10271767;28;20160;-65
2023/02/10 21:35:12;;;;;;;61.20;28.42;;;;;;;4.24;62.64;102387.31;10271111;28;20435;-63
2023/02/10 21:40:14;;;;;;;55.65;28.05;;;;;;;4.18;62.76;102374.34;10268258;28;20285;-64
2023/02/10 21:45:15;;;;;;;54.95;27.98;;;;;;;4.14;62.41;102383.44;10264549;28;20055;-65
2023/02/10 21:50:17;;;;;;;58.38;28.85;;;;;;;4.01;62.76;102383.25;10251196;28;20047;-64
2023/02/10 21:55:19;;;;;;;57.45;28.45;;;;;;;4.02;62.58;102387.63;10266592;28;20043;-63
2023/02/10 22:00:20;;;;;;;53.72;28.50;;;;;;;3.91;62.68;102380.25;10252957;28;20096;-64
2023/02/10 22:05:22;;;;;;;52.33;25.95;;;;;;;3.85;62.80;102375.25;10263654;28;20154;-63
2023/02/10 22:10:26;;;;;;;55.05;25.90;;;;;;;3.84;63.12;102388.63;10267431;28;20073;-64
2023/02/10 22:15:27;;;;;;;57.60;27.58;;;;;;;3.82;63.38;102394.03;10261829;28;20055;-64
2023/02/10 22:20:29;;;;;;;52.90;25.17;;;;;;;3.78;63.10;102388.00;10261003;28;20090;-64
2023/02/10 22:25:30;;;;;;;51.72;24.65;;;;;;;3.76;63.57;102394.34;10264487;28;20136;-64
2023/02/10 22:30:31;;;;;;;50.97;23.73;;;;;;;3.77;63.44;102386.28;10261771;28;20114;-64
2023/02/10 22:35:37;;;;;;;51.35;24.08;;;;;;;3.78;63.73;102381.81;10264855;28;20390;-64
2023/02/10 22:40:40;;;;;;;50.10;23.55;;;;;;;3.83;63.54;102376.25;10264274;28;20085;-64
2023/02/10 22:45:48;;;;;;;49.85;24.13;;;;;;;3.85;63.57;102379.69;10261586;28;20141;-66
2023/02/10 22:50:50;;;;;;;52.05;23.27;;;;;;;3.82;64.22;102379.88;10264747;28;20054;-64
2023/02/10 22:55:52;;;;;;;51.58;23.10;;;;;;;3.80;63.73;102379.09;10257574;28;20090;-64
2023/02/10 23:00:53;;;;;;;46.28;23.27;;;;;;;3.65;64.86;102381.59;10264958;28;20070;-65
2023/02/10 23:05:55;;;;;;;47.80;22.35;;;;;;;3.82;64.32;102386.03;10258043;28;20464;-65
2023/02/10 23:10:57;;;;;;;41.28;22.52;;;;;;;3.90;64.12;102381.16;10264682;28;20161;-64
2023/02/10 23:15:58;;;;;;;40.72;19.58;;;;;;;3.88;64.51;102387.53;10262187;28;20571;-65